createdAt,value
2023-02-23T00:00:29.420Z,-2.89
2023-02-23T00:03:01.547Z,-2.88
2023-02-23T00:05:31.612Z,-2.91
2023-02-23T00:08:00.100Z,-2.95
2023-02-23T00:10:31.956Z,-3.02
2023-02-23T00:13:00.958Z,-3.06
2023-02-23T00:15:32.103Z,-3.07
2023-02-23T00:18:01.105Z,-3.11
2023-02-23T00:20:29.891Z,-3.15
2023-02-23T00:22:59.389Z,-3.18
2023-02-23T00:25:31.257Z,-3.27
2023-02-23T00:28:00.054Z,-3.18
2023-02-23T00:30:28.525Z,-3.36
2023-02-23T00:32:57.113Z,-3.23
2023-02-23T00:35:25.501Z,-3.24
2023-02-23T00:37:59.201Z,-3.24
2023-02-23T00:40:27.994Z,-3.26
2023-02-23T00:42:56.475Z,-3.26
2023-02-23T00:45:26.494Z,-3.31
2023-02-23T00:47:55.387Z,-3.36
2023-02-23T00:50:24.690Z,-3.37
2023-02-23T00:52:53.176Z,-3.37
2023-02-23T00:55:21.552Z,-3.39
2023-02-23T00:57:51.572Z,-3.42
2023-02-23T01:00:21.084Z,-3.41
2023-02-23T01:02:50.687Z,-3.37
2023-02-23T01:05:20.702Z,-3.29
2023-02-23T01:07:51.351Z,-3.21
2023-02-23T01:10:19.928Z,-3.17
2023-02-23T01:12:50.622Z,-3.19
2023-02-23T01:15:20.370Z,-3.16
2023-02-23T01:17:48.850Z,-3.10
2023-02-23T01:20:19.422Z,-3.04
2023-02-23T01:22:51.743Z,-2.99
2023-02-23T01:25:20.342Z,-2.97
2023-02-23T01:27:48.822Z,-2.97
2023-02-23T01:30:18.464Z,-3.02
2023-02-23T01:32:46.888Z,-3.07
2023-02-23T01:35:15.296Z,-3.09
2023-02-23T01:37:44.169Z,-3.08
2023-02-23T01:40:29.064Z,-3.06
2023-02-23T01:43:07.165Z,-3.07
2023-02-23T01:45:36.678Z,-3.09
2023-02-23T01:48:14.613Z,-3.13
2023-02-23T01:50:49.615Z,-3.17
2023-02-23T01:53:18.106Z,-3.19
2023-02-23T01:55:46.483Z,-3.20
2023-02-23T01:58:20.079Z,-3.22
2023-02-23T02:00:57.000Z,-3.27
2023-02-23T02:03:31.399Z,-3.33
2023-02-23T02:06:02.221Z,-3.38
2023-02-23T02:08:31.353Z,-3.50
2023-02-23T02:11:25.606Z,-3.46
2023-02-23T02:13:55.623Z,-3.55
2023-02-23T02:17:02.714Z,-3.62
2023-02-23T02:20:33.266Z,-3.65
2023-02-23T02:23:27.563Z,-3.70
2023-02-23T02:26:16.197Z,-3.73
2023-02-23T02:28:50.825Z,-3.72
2023-02-23T02:31:49.836Z,-3.73
2023-02-23T02:34:52.214Z,-3.75
2023-02-23T02:37:33.589Z,-3.80
2023-02-23T02:40:22.636Z,-3.81
2023-02-23T02:43:12.742Z,-3.78
2023-02-23T02:46:00.057Z,-3.77
2023-02-23T02:48:31.345Z,-3.77
2023-02-23T02:51:35.437Z,-3.78
2023-02-23T02:54:27.470Z,-3.81
2023-02-23T02:56:58.003Z,-3.89
2023-02-23T02:59:46.458Z,-3.96
2023-02-23T03:02:41.867Z,-3.98
2023-02-23T03:05:33.696Z,-3.98
2023-02-23T03:08:44.070Z,-3.99
2023-02-23T03:11:32.208Z,-3.99
2023-02-23T03:14:29.154Z,-4.01
2023-02-23T03:17:29.593Z,-4.00
2023-02-23T03:20:32.375Z,-4.00
2023-02-23T03:23:25.756Z,-3.99
2023-02-23T03:26:19.106Z,-4.02
2023-02-23T03:29:21.283Z,-4.05
2023-02-23T03:32:23.679Z,-4.11
2023-02-23T03:35:27.061Z,-4.17
2023-02-23T03:38:23.394Z,-4.21
2023-02-23T03:41:11.843Z,-4.25
2023-02-23T03:44:02.957Z,-4.27
2023-02-23T03:46:50.794Z,-4.29
2023-02-23T03:49:38.017Z,-4.31
2023-02-23T03:52:29.133Z,-4.33
2023-02-23T03:55:22.189Z,-4.35
2023-02-23T03:58:11.262Z,-4.36
2023-02-23T04:01:01.546Z,-4.44
2023-02-23T04:03:49.830Z,-4.58
2023-02-23T04:06:37.217Z,-4.83
2023-02-23T04:09:26.289Z,-5.12
2023-02-23T04:12:16.476Z,-5.35
2023-02-23T04:14:59.909Z,-5.45
2023-02-23T04:17:29.310Z,-5.47
2023-02-23T04:19:57.895Z,-5.43
2023-02-23T04:22:26.377Z,-5.39
2023-02-23T04:24:54.870Z,-5.33
2023-02-23T04:27:23.752Z,-5.28
2023-02-23T04:29:53.159Z,-5.23
2023-02-23T04:32:23.502Z,-5.20
2023-02-23T04:34:52.081Z,-5.18
2023-02-23T04:37:20.453Z,-5.17
2023-02-23T04:39:50.266Z,-5.16
2023-02-23T04:42:18.644Z,-5.14
2023-02-23T04:44:47.537Z,-5.20
2023-02-23T04:47:16.134Z,-5.24
2023-02-23T04:49:44.707Z,-5.22
2023-02-23T04:52:12.998Z,-5.20
2023-02-23T04:54:42.093Z,-5.19
2023-02-23T04:57:10.466Z,-5.21
2023-02-23T04:59:38.949Z,-5.22
2023-02-23T05:02:07.740Z,-5.24
2023-02-23T05:04:39.016Z,-5.25
2023-02-23T05:07:07.474Z,-5.26
2023-02-23T05:09:35.852Z,-5.30
2023-02-23T05:12:05.153Z,-5.41
2023-02-23T05:14:34.617Z,-5.56
2023-02-23T05:17:03.042Z,-5.64
2023-02-23T05:19:35.623Z,-5.63
2023-02-23T05:22:06.258Z,-5.60
2023-02-23T05:24:34.843Z,-5.56
2023-02-23T05:27:03.325Z,-5.50
2023-02-23T05:29:32.015Z,-5.53
2023-02-23T05:32:00.904Z,-5.39
2023-02-23T05:34:29.596Z,-5.36
2023-02-23T05:36:58.182Z,-5.35
2023-02-23T05:39:27.276Z,-5.33
2023-02-23T05:41:55.582Z,-5.29
2023-02-23T05:44:24.860Z,-5.25
2023-02-23T05:46:53.657Z,-5.20
2023-02-23T05:49:22.951Z,-5.18
2023-02-23T05:51:51.845Z,-5.16
2023-02-23T05:54:20.837Z,-5.10
2023-02-23T05:56:49.627Z,-5.04
2023-02-23T05:59:18.625Z,-5.00
2023-02-23T06:01:47.459Z,-4.94
2023-02-23T06:04:19.484Z,-4.85
2023-02-23T06:06:50.022Z,-4.85
2023-02-23T06:09:19.020Z,-4.70
2023-02-23T06:11:48.336Z,-4.63
2023-02-23T06:14:16.802Z,-4.59
2023-02-23T06:16:49.168Z,-4.57
2023-02-23T06:19:18.907Z,-4.58
2023-02-23T06:21:47.265Z,-4.55
2023-02-23T06:24:16.466Z,-4.49
2023-02-23T06:26:45.783Z,-4.43
2023-02-23T06:29:14.968Z,-4.36
2023-02-23T06:31:44.990Z,-4.29
2023-02-23T06:34:13.881Z,-4.22
2023-02-23T06:36:43.590Z,-4.17
2023-02-23T06:39:13.831Z,-4.10
2023-02-23T06:41:43.834Z,-4.06
2023-02-23T06:44:12.318Z,-4.01
2023-02-23T06:46:43.389Z,-3.96
2023-02-23T06:49:12.252Z,-3.94
2023-02-23T06:51:43.228Z,-3.93
2023-02-23T06:54:11.772Z,-3.92
2023-02-23T06:56:40.874Z,-3.90
2023-02-23T06:59:12.741Z,-3.90
2023-02-23T07:01:45.059Z,-3.95
2023-02-23T07:04:16.228Z,-3.95
2023-02-23T07:06:45.246Z,-3.99
2023-02-23T07:09:15.678Z,-3.96
2023-02-23T07:11:47.123Z,-3.91
2023-02-23T07:14:26.086Z,-3.88
2023-02-23T07:16:55.354Z,-3.80
2023-02-23T07:19:25.081Z,-3.70
2023-02-23T07:21:54.059Z,-3.61
2023-02-23T07:24:22.744Z,-3.52
2023-02-23T07:26:52.366Z,-3.48
2023-02-23T07:29:21.042Z,-3.46
2023-02-23T07:31:50.822Z,-3.47
2023-02-23T07:34:19.544Z,-3.29
2023-02-23T07:36:48.027Z,-3.20
2023-02-23T07:39:16.513Z,-3.14
2023-02-23T07:41:44.995Z,-3.10
2023-02-23T07:44:22.329Z,-3.10
2023-02-23T07:46:53.128Z,-3.01
2023-02-23T07:49:21.503Z,-2.88
2023-02-23T07:51:50.085Z,-2.76
2023-02-23T07:54:20.020Z,-2.61
2023-02-23T07:56:48.490Z,-2.47
2023-02-23T07:59:17.898Z,-2.27
2023-02-23T08:01:46.273Z,-2.04
2023-02-23T08:04:15.513Z,-1.77
2023-02-23T08:06:44.568Z,-1.57
2023-02-23T08:09:13.052Z,-1.37
2023-02-23T08:11:41.431Z,-1.21
2023-02-23T08:14:11.350Z,-1.14
2023-02-23T08:16:40.005Z,-0.95
2023-02-23T08:19:09.953Z,-0.76
2023-02-23T08:21:38.945Z,-0.53
2023-02-23T08:24:11.325Z,-0.37
2023-02-23T08:26:41.595Z,-0.19
2023-02-23T08:29:10.365Z,0.04
2023-02-23T08:31:40.887Z,0.22
2023-02-23T08:34:10.471Z,0.43
2023-02-23T08:36:43.686Z,0.66
2023-02-23T08:39:13.990Z,0.82
2023-02-23T08:41:43.602Z,1.02
2023-02-23T08:44:12.082Z,1.15
2023-02-23T08:47:47.135Z,1.21
2023-02-23T08:50:25.229Z,1.35
2023-02-23T08:52:55.256Z,1.45
2023-02-23T08:55:26.802Z,1.49
2023-02-23T08:57:55.389Z,1.42
2023-02-23T09:00:24.524Z,1.21
2023-02-23T09:02:53.289Z,1.11
2023-02-23T09:05:22.196Z,1.18
2023-02-23T09:07:51.678Z,1.40
2023-02-23T09:10:20.892Z,1.68
2023-02-23T09:12:51.716Z,1.95
2023-02-23T09:15:20.342Z,2.07
2023-02-23T09:17:48.751Z,2.12
2023-02-23T09:20:18.191Z,2.12
2023-02-23T09:22:49.749Z,2.19
2023-02-23T09:25:23.158Z,2.34
2023-02-23T09:27:53.512Z,2.57
2023-02-23T09:30:22.575Z,2.85
2023-02-23T09:32:51.152Z,3.07
2023-02-23T09:35:20.916Z,3.26
2023-02-23T09:37:53.653Z,3.42
2023-02-23T09:40:27.051Z,3.63
2023-02-23T09:43:15.613Z,3.74
2023-02-23T09:45:48.427Z,3.88
2023-02-23T09:48:25.470Z,4.02
2023-02-23T09:50:55.898Z,4.09
2023-02-23T09:53:34.080Z,4.29
2023-02-23T09:56:06.397Z,4.51
2023-02-23T09:58:36.199Z,4.71
2023-02-23T10:02:32.662Z,4.76
2023-02-23T10:05:05.822Z,4.77
2023-02-23T10:07:45.181Z,4.87
2023-02-23T10:10:29.360Z,4.89
2023-02-23T10:13:00.685Z,4.71
2023-02-23T10:15:53.273Z,4.25
2023-02-23T10:18:45.286Z,3.99
2023-02-23T10:21:18.746Z,3.57
2023-02-23T10:23:47.479Z,3.57
2023-02-23T10:26:24.489Z,3.86
2023-02-23T10:28:54.563Z,4.15
2023-02-23T10:31:41.602Z,4.33
2023-02-23T10:34:18.930Z,4.54
2023-02-23T10:36:58.682Z,4.78
2023-02-23T10:39:27.745Z,4.86
2023-02-23T10:42:01.214Z,4.88
2023-02-23T10:44:30.124Z,4.96
2023-02-23T10:47:08.350Z,4.96
2023-02-23T10:49:48.996Z,4.98
2023-02-23T10:52:48.926Z,5.04
2023-02-23T10:55:26.423Z,5.17
2023-02-23T10:58:03.809Z,5.43
2023-02-23T11:00:34.228Z,5.72
2023-02-23T11:03:04.680Z,5.94
2023-02-23T11:05:37.974Z,6.04
2023-02-23T11:08:20.377Z,5.99
2023-02-23T11:11:05.857Z,5.89
2023-02-23T11:13:39.875Z,5.64
2023-02-23T11:16:13.457Z,5.53
2023-02-23T11:19:04.082Z,5.43
2023-02-23T11:21:40.353Z,5.44
2023-02-23T11:24:36.987Z,5.54
2023-02-23T11:27:07.318Z,5.60
2023-02-23T11:29:36.828Z,5.79
2023-02-23T11:32:30.697Z,5.93
2023-02-23T11:35:20.795Z,5.96
2023-02-23T11:37:49.822Z,6.17
2023-02-23T11:40:21.350Z,6.16
2023-02-23T11:42:53.931Z,5.89
2023-02-23T11:45:23.422Z,5.70
2023-02-23T11:47:59.087Z,5.58
2023-02-23T11:50:35.807Z,5.58
2023-02-23T11:53:14.099Z,5.78
2023-02-23T11:55:51.582Z,6.15
2023-02-23T11:58:36.248Z,6.58
2023-02-23T12:01:13.795Z,7.01
2023-02-23T12:03:56.582Z,7.28
2023-02-23T12:06:30.497Z,7.39
2023-02-23T12:09:03.149Z,7.23
2023-02-23T12:11:34.780Z,7.12
2023-02-23T12:14:28.443Z,7.27
2023-02-23T12:17:04.305Z,7.37
2023-02-23T12:19:55.046Z,7.26
2023-02-23T12:22:26.997Z,7.66
2023-02-23T12:25:05.326Z,7.83
2023-02-23T12:27:44.878Z,8.07
2023-02-23T12:30:38.335Z,7.96
2023-02-23T12:33:30.320Z,7.66
2023-02-23T12:36:21.866Z,7.54
2023-02-23T12:38:58.155Z,7.77
2023-02-23T12:41:40.774Z,8.23
2023-02-23T12:44:15.606Z,8.76
2023-02-23T12:46:51.475Z,9.10
2023-02-23T12:49:22.910Z,8.84
2023-02-23T12:51:53.952Z,8.62
2023-02-23T12:54:22.961Z,8.74
2023-02-23T12:56:55.139Z,8.93
2023-02-23T12:59:34.146Z,9.10
2023-02-23T13:02:06.561Z,9.52
2023-02-23T13:04:51.084Z,10.01
2023-02-23T13:07:35.151Z,10.45
2023-02-23T13:10:12.680Z,10.81
2023-02-23T13:12:51.152Z,11.21
2023-02-23T13:15:32.136Z,11.55
2023-02-23T13:18:16.074Z,11.94
2023-02-23T13:20:51.419Z,12.38
2023-02-23T13:23:34.130Z,12.79
2023-02-23T13:26:11.830Z,12.99
2023-02-23T13:29:07.654Z,12.91
2023-02-23T13:31:37.286Z,12.66
2023-02-23T13:34:10.503Z,12.60
2023-02-23T13:36:40.986Z,12.51
2023-02-23T13:39:18.942Z,12.50
2023-02-23T13:41:52.526Z,12.55
2023-02-23T13:44:37.254Z,12.86
2023-02-23T13:47:35.125Z,13.19
2023-02-23T13:50:28.207Z,13.48
2023-02-23T13:52:58.937Z,12.81
2023-02-23T13:55:29.449Z,12.11
2023-02-23T13:58:11.247Z,11.86
2023-02-23T14:00:40.242Z,11.24
2023-02-23T14:03:09.391Z,10.61
2023-02-23T14:05:44.479Z,9.86
2023-02-23T14:08:33.255Z,9.21
2023-02-23T14:11:02.963Z,8.74
2023-02-23T14:13:33.128Z,8.36
2023-02-23T14:16:16.529Z,7.96
2023-02-23T14:18:54.491Z,7.95
2023-02-23T14:21:52.699Z,8.26
2023-02-23T14:24:25.903Z,8.52
2023-02-23T14:27:38.400Z,8.49
2023-02-23T14:30:11.500Z,8.23
2023-02-23T14:32:42.121Z,8.29
2023-02-23T14:35:32.326Z,8.47
2023-02-23T14:38:02.136Z,8.45
2023-02-23T14:40:35.141Z,8.47
2023-02-23T14:43:04.027Z,8.55
2023-02-23T14:45:34.549Z,8.43
2023-02-23T14:48:07.542Z,8.33
2023-02-23T14:50:36.542Z,8.28
2023-02-23T14:53:06.867Z,8.30
2023-02-23T14:55:38.308Z,8.38
2023-02-23T14:58:27.889Z,8.37
2023-02-23T15:00:57.299Z,8.02
2023-02-23T15:03:25.912Z,7.53
2023-02-23T15:05:59.186Z,7.06
2023-02-23T15:08:30.523Z,6.54
2023-02-23T15:11:12.550Z,6.02
2023-02-23T15:13:50.144Z,5.32
2023-02-23T15:16:32.251Z,4.78
2023-02-23T15:19:01.513Z,4.32
2023-02-23T15:21:30.314Z,3.92
2023-02-23T15:24:24.605Z,3.57
2023-02-23T15:26:53.845Z,3.24
2023-02-23T15:29:30.990Z,2.99
2023-02-23T15:32:15.425Z,2.76
2023-02-23T15:34:43.827Z,2.54
2023-02-23T15:37:20.711Z,2.37
2023-02-23T15:39:53.516Z,2.20
2023-02-23T15:42:25.233Z,2.02
2023-02-23T15:45:01.828Z,1.90
2023-02-23T15:47:35.658Z,1.81
2023-02-23T15:50:08.879Z,1.74
2023-02-23T15:52:39.913Z,1.68
2023-02-23T15:55:10.249Z,1.64
2023-02-23T15:57:53.536Z,1.55
2023-02-23T16:00:32.882Z,1.42
2023-02-23T16:03:04.585Z,1.25
2023-02-23T16:05:41.937Z,1.12
2023-02-23T16:08:23.200Z,0.99
2023-02-23T16:11:13.295Z,0.90
2023-02-23T16:13:45.717Z,0.83
2023-02-23T16:16:25.787Z,0.77
2023-02-23T16:19:01.611Z,0.70
2023-02-23T16:21:31.706Z,0.58
2023-02-23T16:24:02.036Z,0.53
2023-02-23T16:26:55.131Z,0.48
2023-02-23T16:29:44.165Z,0.40
2023-02-23T16:32:20.282Z,0.28
2023-02-23T16:35:14.482Z,0.18
2023-02-23T16:38:01.945Z,0.13
2023-02-23T16:40:30.641Z,0.05
2023-02-23T16:42:59.851Z,-0.01
2023-02-23T16:45:29.911Z,-0.03
2023-02-23T16:48:02.469Z,-0.07
2023-02-23T16:50:31.127Z,-0.13
2023-02-23T16:53:02.324Z,-0.18
2023-02-23T16:55:31.177Z,-0.22
2023-02-23T16:58:01.003Z,-0.26
2023-02-23T17:00:32.411Z,-0.30
2023-02-23T17:03:01.440Z,-0.37
2023-02-23T17:05:31.485Z,-0.45
2023-02-23T17:08:05.261Z,-0.50
2023-02-23T17:10:34.705Z,-0.54
2023-02-23T17:13:27.431Z,-0.58
2023-02-23T17:15:56.596Z,-0.64
2023-02-23T17:18:27.859Z,-0.70
2023-02-23T17:20:57.169Z,-0.76
2023-02-23T17:23:28.418Z,-0.80
2023-02-23T17:25:57.822Z,-0.83
2023-02-23T17:28:26.211Z,-0.90
2023-02-23T17:30:55.269Z,-0.98
2023-02-23T17:33:24.297Z,-1.00
2023-02-23T17:35:52.597Z,-1.01
2023-02-23T17:38:33.978Z,-1.04
2023-02-23T17:41:04.288Z,-1.11
2023-02-23T17:43:32.870Z,-1.22
2023-02-23T17:46:02.530Z,-1.23
2023-02-23T17:48:35.067Z,-1.24
2023-02-23T17:51:09.436Z,-1.26
2023-02-23T17:53:38.484Z,-1.25
2023-02-23T17:56:10.053Z,-1.24
2023-02-23T17:58:40.478Z,-1.22
2023-02-23T18:01:11.028Z,-1.26
2023-02-23T18:03:41.115Z,-1.29
2023-02-23T18:06:12.911Z,-1.33
2023-02-23T18:08:42.618Z,-1.35
2023-02-23T18:11:11.516Z,-1.39
2023-02-23T18:13:40.597Z,-1.43
2023-02-23T18:16:10.442Z,-1.38
2023-02-23T18:18:40.116Z,-1.34
2023-02-23T18:21:13.521Z,-1.34
2023-02-23T18:23:42.122Z,-1.34
2023-02-23T18:26:12.957Z,-1.35
2023-02-23T18:28:44.693Z,-1.36
2023-02-23T18:31:17.990Z,-1.32
2023-02-23T18:33:53.214Z,-1.33
2023-02-23T18:36:30.049Z,-1.37
2023-02-23T18:38:58.816Z,-1.39
2023-02-23T18:41:31.090Z,-1.44
2023-02-23T18:44:05.122Z,-1.49
2023-02-23T18:46:33.647Z,-1.54
2023-02-23T18:49:03.827Z,-1.60
2023-02-23T18:51:33.230Z,-1.62
2023-02-23T18:54:03.676Z,-1.63
2023-02-23T18:56:32.870Z,-1.64
2023-02-23T18:59:04.405Z,-1.71
2023-02-23T19:01:37.807Z,-1.73
2023-02-23T19:04:08.549Z,-1.71
2023-02-23T19:06:39.375Z,-1.73
2023-02-23T19:09:14.712Z,-1.74
2023-02-23T19:11:44.741Z,-1.74
2023-02-23T19:14:17.115Z,-1.74
2023-02-23T19:16:47.028Z,-1.76
2023-02-23T19:19:18.388Z,-1.78
2023-02-23T19:21:46.764Z,-1.78
2023-02-23T19:24:15.141Z,-1.78
2023-02-23T19:26:44.751Z,-1.81
2023-02-23T19:29:13.342Z,-1.83
2023-02-23T19:31:43.026Z,-1.85
2023-02-23T19:34:11.433Z,-1.87
2023-02-23T19:36:40.943Z,-1.87
2023-02-23T19:39:15.884Z,-1.88
2023-02-23T19:41:45.281Z,-1.88
2023-02-23T19:44:17.626Z,-1.88
2023-02-23T19:46:46.039Z,-1.90
2023-02-23T19:49:14.833Z,-1.89
2023-02-23T19:51:45.156Z,-1.91
2023-02-23T19:54:13.639Z,-1.92
2023-02-23T19:56:43.558Z,-1.98
2023-02-23T19:59:12.346Z,-2.02
2023-02-23T20:01:43.803Z,-1.99
2023-02-23T20:04:12.922Z,-1.99
2023-02-23T20:06:47.324Z,-1.99
2023-02-23T20:09:17.369Z,-1.99
2023-02-23T20:11:49.627Z,-2.00
2023-02-23T20:14:18.601Z,-2.05
2023-02-23T20:16:48.743Z,-2.10
2023-02-23T20:19:18.027Z,-2.13
2023-02-23T20:21:46.403Z,-2.14
2023-02-23T20:24:16.603Z,-2.12
2023-02-23T20:26:46.040Z,-2.12
2023-02-23T20:29:18.171Z,-2.13
2023-02-23T20:31:52.572Z,-2.15
2023-02-23T20:34:24.136Z,-2.14
2023-02-23T20:36:54.049Z,-2.15
2023-02-23T20:39:27.086Z,-2.17
2023-02-23T20:41:55.474Z,-2.25
2023-02-23T20:44:24.564Z,-2.29
2023-02-23T20:46:53.157Z,-2.29
2023-02-23T20:49:22.979Z,-2.28
2023-02-23T20:51:52.478Z,-2.26
2023-02-23T20:54:21.270Z,-2.24
2023-02-23T20:57:07.913Z,-2.22
2023-02-23T20:59:38.093Z,-2.21
2023-02-23T21:02:08.428Z,-2.21
2023-02-23T21:04:39.170Z,-2.20
2023-02-23T21:07:07.882Z,-2.17
2023-02-23T21:09:40.328Z,-2.15
2023-02-23T21:12:12.913Z,-2.13
2023-02-23T21:14:50.402Z,-2.12
2023-02-23T21:17:18.886Z,-2.10
2023-02-23T21:19:47.371Z,-2.08
2023-02-23T21:22:17.291Z,-2.07
2023-02-23T21:24:45.972Z,-2.06
2023-02-23T21:27:14.355Z,-2.04
2023-02-23T21:29:42.996Z,-2.05
2023-02-23T21:32:14.658Z,-2.06
2023-02-23T21:34:43.800Z,-2.07
2023-02-23T21:37:12.928Z,-2.06
2023-02-23T21:39:41.893Z,-2.04
2023-02-23T21:42:10.788Z,-2.08
2023-02-23T21:44:40.010Z,-2.12
2023-02-23T21:47:08.472Z,-2.09
2023-02-23T21:49:38.710Z,-2.07
2023-02-23T21:52:08.928Z,-2.06
2023-02-23T21:54:39.041Z,-2.05
2023-02-23T21:57:07.637Z,-2.03
2023-02-23T21:59:36.005Z,-2.03
2023-02-23T22:02:04.780Z,-2.03
2023-02-23T22:04:36.244Z,-2.02
2023-02-23T22:07:05.676Z,-2.00
2023-02-23T22:09:35.369Z,-1.99
2023-02-23T22:12:04.888Z,-2.04
2023-02-23T22:14:34.997Z,-2.06
2023-02-23T22:20:01.564Z,-2.04
2023-02-23T22:22:36.329Z,-2.06
2023-02-23T22:25:06.423Z,-2.07
2023-02-23T22:27:35.609Z,-2.08
2023-02-23T22:30:06.655Z,-2.08
2023-02-23T22:32:37.063Z,-2.00
2023-02-23T22:35:07.530Z,-1.90
2023-02-23T22:37:36.918Z,-1.85
2023-02-23T22:40:24.549Z,-1.91
2023-02-23T22:42:54.979Z,-1.94
2023-02-23T22:45:23.365Z,-1.91
2023-02-23T22:47:55.737Z,-1.88
2023-02-23T22:50:24.217Z,-1.87
2023-02-23T22:52:52.599Z,-1.91
2023-02-23T22:55:20.981Z,-1.94
2023-02-23T22:57:49.696Z,-1.95
2023-02-23T23:00:19.094Z,-1.95
2023-02-23T23:02:47.656Z,-1.96
2023-02-23T23:05:18.087Z,-1.97
2023-02-23T23:07:49.341Z,-1.91
2023-02-23T23:10:18.436Z,-1.87
2023-02-23T23:12:47.222Z,-1.86
2023-02-23T23:15:17.476Z,-1.86
2023-02-23T23:17:50.229Z,-1.87
2023-02-23T23:20:23.221Z,-1.87
2023-02-23T23:22:54.986Z,-1.88
2023-02-23T23:25:29.818Z,-1.88
2023-02-23T23:27:58.600Z,-1.90
2023-02-23T23:30:29.416Z,-1.91
2023-02-23T23:32:58.689Z,-1.92
2023-02-23T23:35:27.132Z,-1.89
2023-02-23T23:37:57.045Z,-1.78
2023-02-23T23:40:25.741Z,-1.72
2023-02-23T23:42:55.652Z,-1.70
2023-02-23T23:45:27.743Z,-1.68
2023-02-23T23:47:56.205Z,-1.74
2023-02-23T23:50:27.522Z,-1.79
2023-02-23T23:52:57.308Z,-1.77
2023-02-23T23:55:31.256Z,-1.78
2023-02-23T23:58:00.664Z,-1.79
